AirNav   Everest Fuels
 
 623 users online  

5CT8 Canal Street Heliport
Stamford, Connecticut, USA

GOING TO STAMFORD?


FAA INFORMATION EFFECTIVE 18 JUNE 2020

Location

FAA Identifier: 5CT8
Lat/Long: 41-02-38.3500N 073-31-54.4400W
41-02.639167N 073-31.907333W
41.0439861,-73.5317889
(estimated)
Elevation: 50 ft. / 15 m (estimated)
Variation: 14W (1995)
From city: 1 mile S of STAMFORD, CT
Time zone: UTC -4 (UTC -5 during Standard Time)
Zip code: 06902

Heliport Operations

Heliport use: Private use. Permission required prior to landing
Activation date: 03/1998
Control tower: no
ARTCC: NEW YORK CENTER
FSS: BRIDGEPORT FLIGHT SERVICE STATION
Attendance: 0700-1900
Segmented circle: no
Lights: FOR PERIMETER AND STROBE LGTS CALL 203-967-2000.
Landing fee: yes

Heliport Communications

UNICOM: 123.05
WX ASOS at HPN (8 nm W): PHONE 914-288-0216
WX ASOS at FRG (20 nm S): PHONE 631-752-8129
WX ASOS at BDR (20 nm E): 119.15 (203-381-9453)
WX ASOS at DXR (20 nm N): 127.75 (203-791-8227)

Nearby radio navigation aids

VOR radial/distance  VOR name  Freq  Var
CMKr183/14.3CARMEL VOR/DME116.6012W
DPKr338/18.3DEER PARK VOR/DME117.7012W
BDRr261/19.7BRIDGEPORT VOR/DME108.8012W
LGAr056/21.8LA GUARDIA VOR/DME113.1012W
TEBr075/26.7TETERBORO VOR/DME108.4011W
JFKr036/27.0KENNEDY VOR/DME115.9012W
CRIr043/30.7CANARSIE VOR/DME112.3011W
CCCr295/33.9CALVERTON VOR/DME117.2013W
IGNr173/39.5KINGSTON VOR/DME117.6012W

 
NDB name  Hdg/Dist  Freq  Var  ID
BABYLON357/23.327514WBBN -... -... -.
STANWYCK153/37.126112WSKU ... -.- ..-

Heliport Services

Runway Information

Helipad H1

Dimensions: 50 x 50 ft. / 15 x 15 m
Surface: asphalt
ROOFTOP.
Runway edge lights: PERI
AND 2 STROBE LGTS.
Latitude: 41-02.639167N
Longitude: 073-31.907333W
Elevation: 50.0 ft.
Traffic pattern: leftleft

Heliport Ownership and Management from official FAA records

Ownership: Privately-owned
Owner: MOUNTAIN DEVELOPMENT CORP.
3 GARRET MOUNTAIN PLAZA, STE 204
WOODLAND PARK, NJ 07424
Phone (973) 279-9000
Manager: EDDIE TORRES PROPERTY MGR CT.
99 HAWLEY LANE , MOUNTAIN DEVELOPMENT CORP.
STRATFORD, CT 06614
Phone 203-644-1560
CELL PHONE 203-943-3977

Additional Remarks

A52-H1 +40 FT BLDG 75 FT N; +50 FT BLDG 400 FT SW.
PPR FOR LNDG CALL 203-994-6855.
FOR CD CTC NEW YORK APCH AT 516-683-2849.

Instrument Procedures

There are no published instrument procedures at 5CT8.

Some nearby airports with instrument procedures:

KHPN - Westchester County Airport (8 nm W)
KFRG - Republic Airport (20 nm S)
KBDR - Igor I Sikorsky Memorial Airport (20 nm E)
KDXR - Danbury Municipal Airport (20 nm N)
KLGA - LaGuardia Airport (22 nm SW)
 
Loc | Ops | Rwys | IFR | FBO | Links
Com | Nav | Svcs | Stats | Notes

Silver City Flying Club
 
Area around 5CT8 (Canal Street Heliport)
 
Road maps at: MapQuest Bing Google
 
Aerial photo
No photo
 
Sectional chart

 
Airport distance calculator
Flying to Canal Street Heliport? Find the distance to fly.

From to 5CT8

Sunrise and sunset
Times for 11-Jul-2020
 Local
(UTC-4)
 Zulu
(UTC)
Morning civil twilight05:0109:01
Sunrise05:3309:33
Sunset20:2600:26
Evening civil twilight20:5900:59

Current date and time
Zulu (UTC)  11-Jul-2020 12:11:09
Local (UTC-4)  11-Jul-2020 08:11:09
 
METAR
KHPN 
8nm W 
111156Z 16005KT 10SM CLR 24/22 A2973 RMK AO2 SLP060 60002 7//// T02440217 10244 20222 51010 $
KFRG 
19nm S 
111202Z 19008KT 1/4SM FG VV002 24/23 A2974 RMK AO2 T02440228
KBDR 
19nm E 
111152Z 19010KT 10SM CLR 24/22 A2973 RMK AO2 SLP067 70029 T02440217 10244 20233 51014
KDXR 
19nm N 
111153Z 23004KT 10SM SCT017 24/21 A2974 RMK AO2 SLP065 60003 70102 T02390211 10239 20222 51018
TAF
KHPN 
8nm W 
111131Z 1112/1212 19007KT P6SM SCT025 SCT120 FM111800 19011G20KT P6SM VCSH SCT040 TEMPO 1120/1124 2SM +TSRA SCT020 BKN035CB FM120000 20008KT P6SM VCSH SCT050 FM120300 24006KT P6SM SCT050 FM120600 27005KT P6SM FEW030 SCT050 AMD NOT SKED
KBDR 
19nm E 
111131Z 1112/1212 20010KT P6SM FEW015 FEW120 FM111400 19011KT P6SM SCT025 SCT120 FM111800 19013G21KT P6SM SCT035 FM112300 21010KT P6SM SCT040 FM120600 24006KT P6SM FEW030 SCT040
NOTAMs
Click for the latest NOTAMs
NOTAMs are issued by the DoD/FAA and will open in a separate window not controlled by AirNav.

 

 
 

Would you like to see your business listed on this page?

 If your business provides an interesting product or service to pilots, flight crews, aircraft, or users of the Canal Street Heliport, you should consider listing it here.  To start the listing process, click on the button below
 
Add a business
 

Other Pages about Canal Street Heliport

Update a link
 
Copyright © AirNav, LLC. All rights reserved. Privacy Policy  Contact